createdAt,value
2022-08-05T00:00:54.391Z,99760.97
2022-08-05T00:03:21.829Z,99767.97
2022-08-05T00:06:06.585Z,99760.22
2022-08-05T00:08:37.065Z,99753.06
2022-08-05T00:11:07.566Z,99751.13
2022-08-05T00:13:52.929Z,99756.97
2022-08-05T00:16:36.020Z,99760.25
2022-08-05T00:19:04.099Z,99761.66
2022-08-05T00:21:31.261Z,99755.78
2022-08-05T00:24:10.604Z,99757.13
2022-08-05T00:26:38.854Z,99762.97
2022-08-05T00:29:10.879Z,99759.56
2022-08-05T00:31:53.571Z,99759.09
2022-08-05T00:34:55.332Z,99757.75
2022-08-05T00:37:14.026Z,99758.97
2022-08-05T00:39:58.601Z,99761.38
2022-08-05T00:42:31.956Z,99760.72
2022-08-05T00:45:00.092Z,99751.56
2022-08-05T00:47:31.547Z,99751.00
2022-08-05T00:50:14.703Z,99758.34
2022-08-05T00:52:45.434Z,99752.88
2022-08-05T00:55:13.935Z,99747.03
2022-08-05T00:57:58.127Z,99749.06
2022-08-05T01:00:27.235Z,99751.16
2022-08-05T01:02:55.397Z,99739.34
2022-08-05T01:05:23.234Z,99746.84
2022-08-05T01:08:29.923Z,99747.25
2022-08-05T01:11:01.253Z,99736.38
2022-08-05T01:13:58.356Z,99749.06
2022-08-05T01:16:49.589Z,99745.88
2022-08-05T01:19:36.565Z,99744.03
2022-08-05T01:22:23.906Z,99748.13
2022-08-05T01:25:04.578Z,99739.88
2022-08-05T01:27:55.620Z,99742.72
2022-08-05T01:30:34.685Z,99746.12
2022-08-05T01:33:06.336Z,99736.84
2022-08-05T01:35:51.111Z,99744.59
2022-08-05T01:38:27.137Z,99753.00
2022-08-05T01:40:59.785Z,99746.31
2022-08-05T01:43:28.835Z,99746.44
2022-08-05T01:45:56.721Z,99760.78
2022-08-05T01:48:25.271Z,99751.84
2022-08-05T01:50:52.639Z,99753.62
2022-08-05T01:53:54.971Z,99761.78
2022-08-05T01:56:08.967Z,99754.72
2022-08-05T01:58:44.706Z,99748.94
2022-08-05T02:01:23.326Z,99755.28
2022-08-05T02:03:52.857Z,99760.16
2022-08-05T02:06:37.392Z,99748.31
2022-08-05T02:09:06.243Z,99741.91
2022-08-05T02:11:42.231Z,99749.69
2022-08-05T02:14:17.722Z,99743.47
2022-08-05T02:16:46.909Z,99746.94
2022-08-05T02:19:34.615Z,99745.28
2022-08-05T02:22:03.837Z,99743.19
2022-08-05T02:24:36.869Z,99747.47
2022-08-05T02:27:10.077Z,99740.28
2022-08-05T02:29:59.198Z,99743.59
2022-08-05T02:32:30.887Z,99737.69
2022-08-05T02:38:19.277Z,99741.37
2022-08-05T02:40:47.555Z,99737.75
2022-08-05T02:43:15.462Z,99735.94
2022-08-05T02:45:51.905Z,99738.72
2022-08-05T02:48:22.351Z,99740.91
2022-08-05T02:50:58.653Z,99738.91
2022-08-05T02:53:26.063Z,99742.25
2022-08-05T02:56:00.268Z,99741.25
2022-08-05T02:58:30.227Z,99734.56
2022-08-05T03:00:59.355Z,99740.75
2022-08-05T03:03:27.022Z,99734.53
2022-08-05T03:06:56.161Z,99730.78
2022-08-05T03:08:52.209Z,99733.00
2022-08-05T03:11:54.487Z,99726.50
2022-08-05T03:14:13.529Z,99718.37
2022-08-05T03:16:41.201Z,99721.78
2022-08-05T03:19:17.419Z,99720.66
2022-08-05T03:21:56.260Z,99718.03
2022-08-05T03:24:30.171Z,99718.84
2022-08-05T03:26:59.144Z,99713.81
2022-08-05T03:29:59.596Z,99716.94
2022-08-05T03:32:15.370Z,99717.91
2022-08-05T03:34:50.763Z,99719.81
2022-08-05T03:37:20.388Z,99716.41
2022-08-05T03:40:00.927Z,99716.88
2022-08-05T03:42:32.394Z,99712.69
2022-08-05T03:45:01.634Z,99712.50
2022-08-05T03:47:35.277Z,99715.75
2022-08-05T03:50:02.825Z,99713.47
2022-08-05T03:52:49.353Z,99713.81
2022-08-05T03:56:04.209Z,99717.66
2022-08-05T03:58:11.398Z,99712.41
2022-08-05T04:00:39.047Z,99718.87
2022-08-05T04:03:14.860Z,99717.72
2022-08-05T04:05:54.015Z,99716.03
2022-08-05T04:08:30.173Z,99718.63
2022-08-05T04:11:04.775Z,99720.38
2022-08-05T04:13:50.354Z,99718.22
2022-08-05T04:16:25.030Z,99723.78
2022-08-05T04:19:00.089Z,99722.50
2022-08-05T04:22:09.782Z,99720.06
2022-08-05T04:24:19.529Z,99712.50
2022-08-05T04:26:49.908Z,99715.38
2022-08-05T04:29:17.412Z,99719.78
2022-08-05T04:31:44.575Z,99720.56
2022-08-05T04:34:19.673Z,99720.97
2022-08-05T04:37:01.630Z,99718.06
2022-08-05T04:39:31.219Z,99714.25
2022-08-05T04:41:59.415Z,99714.16
2022-08-05T04:44:29.489Z,99713.50
2022-08-05T04:47:09.361Z,99719.59
2022-08-05T04:50:02.619Z,99716.19
2022-08-05T04:52:28.048Z,99721.16
2022-08-05T04:54:57.246Z,99722.06
2022-08-05T04:57:28.925Z,99725.75
2022-08-05T04:59:58.579Z,99720.41
2022-08-05T05:02:36.358Z,99726.78
2022-08-05T05:05:16.763Z,99717.72
2022-08-05T05:07:56.439Z,99721.16
2022-08-05T05:10:29.625Z,99719.91
2022-08-05T05:12:57.629Z,99716.38
2022-08-05T05:15:57.927Z,99720.78
2022-08-05T05:18:14.685Z,99715.16
2022-08-05T05:20:44.133Z,99717.13
2022-08-05T05:23:19.749Z,99718.37
2022-08-05T05:25:47.888Z,99721.50
2022-08-05T05:28:15.329Z,99723.88
2022-08-05T05:30:42.872Z,99710.81
2022-08-05T05:33:17.622Z,99717.03
2022-08-05T05:35:50.214Z,99711.25
2022-08-05T05:38:27.021Z,99710.87
2022-08-05T05:40:55.831Z,99708.03
2022-08-05T05:43:54.530Z,99713.84
2022-08-05T05:46:17.344Z,99710.06
2022-08-05T05:48:47.931Z,99708.34
2022-08-05T05:51:25.642Z,99716.38
2022-08-05T05:53:58.866Z,99703.41
2022-08-05T05:56:33.210Z,99710.59
2022-08-05T05:59:06.820Z,99703.19
2022-08-05T06:01:39.826Z,99706.00
2022-08-05T06:04:12.776Z,99702.84
2022-08-05T06:06:41.667Z,99702.53
2022-08-05T06:09:09.596Z,99711.28
2022-08-05T06:11:59.553Z,99703.16
2022-08-05T06:14:33.437Z,99705.38
2022-08-05T06:17:52.415Z,99694.97
2022-08-05T06:19:56.662Z,99710.03
2022-08-05T06:22:33.896Z,99711.91
2022-08-05T06:25:24.934Z,99712.59
2022-08-05T06:28:11.506Z,99710.47
2022-08-05T06:30:36.728Z,99713.66
2022-08-05T06:33:03.857Z,99705.06
2022-08-05T06:36:03.485Z,99706.19
2022-08-05T06:38:18.690Z,99711.37
2022-08-05T06:41:04.402Z,99710.00
2022-08-05T06:43:58.297Z,99706.28
2022-08-05T06:46:18.953Z,99709.16
2022-08-05T06:48:55.940Z,99707.69
2022-08-05T06:51:29.882Z,99711.28
2022-08-05T06:53:59.268Z,99708.03
2022-08-05T06:56:27.554Z,99713.22
2022-08-05T06:58:55.225Z,99696.03
2022-08-05T07:01:22.873Z,99707.28
2022-08-05T07:03:50.083Z,99703.59
2022-08-05T07:06:17.518Z,99710.66
2022-08-05T07:08:51.899Z,99714.62
2022-08-05T07:11:25.496Z,99724.09
2022-08-05T07:14:15.376Z,99719.66
2022-08-05T07:18:00.161Z,99715.31
2022-08-05T07:22:28.992Z,99717.09
2022-08-05T07:24:58.440Z,99716.28
2022-08-05T07:27:27.708Z,99712.16
2022-08-05T07:30:27.639Z,99707.22
2022-08-05T07:32:58.106Z,99709.59
2022-08-05T07:36:01.558Z,99701.69
2022-08-05T07:38:32.993Z,99710.13
2022-08-05T07:41:16.519Z,99706.81
2022-08-05T07:43:48.050Z,99702.75
2022-08-05T07:46:24.379Z,99698.00
2022-08-05T07:49:03.302Z,99699.56
2022-08-05T07:51:40.238Z,99698.03
2022-08-05T07:54:10.025Z,99696.44
2022-08-05T07:57:00.644Z,99698.78
2022-08-05T07:59:38.860Z,99695.59
2022-08-05T08:02:15.899Z,99702.34
2022-08-05T08:04:49.144Z,99702.88
2022-08-05T08:07:17.916Z,99698.00
2022-08-05T08:09:46.254Z,99694.78
2022-08-05T08:12:36.873Z,99702.06
2022-08-05T08:15:04.470Z,99694.06
2022-08-05T08:17:32.230Z,99696.31
2022-08-05T08:20:22.414Z,99697.66
2022-08-05T08:22:50.729Z,99694.41
2022-08-05T08:25:34.603Z,99697.69
2022-08-05T08:28:05.905Z,99700.44
2022-08-05T08:30:47.916Z,99691.59
2022-08-05T08:33:17.683Z,99692.03
2022-08-05T08:35:52.412Z,99691.22
2022-08-05T08:38:35.652Z,99689.97
2022-08-05T08:41:05.215Z,99687.06
2022-08-05T08:45:21.243Z,99698.00
2022-08-05T08:46:21.311Z,99689.81
2022-08-05T08:49:07.566Z,99690.44
2022-08-05T08:52:02.981Z,99696.09
2022-08-05T08:54:27.429Z,99693.88
2022-08-05T08:56:56.637Z,99693.81
2022-08-05T08:59:27.568Z,99696.28
2022-08-05T09:01:57.431Z,99688.44
2022-08-05T09:04:30.442Z,99691.38
2022-08-05T09:06:58.602Z,99688.59
2022-08-05T09:09:35.499Z,99690.16
2022-08-05T09:12:20.023Z,99684.12
2022-08-05T09:14:56.433Z,99685.62
2022-08-05T09:17:43.158Z,99681.06
2022-08-05T09:20:36.232Z,99680.37
2022-08-05T09:23:05.460Z,99679.53
2022-08-05T09:26:01.457Z,99670.81
2022-08-05T09:28:24.375Z,99673.09
2022-08-05T09:31:44.192Z,99660.50
2022-08-05T09:33:53.676Z,99663.00
2022-08-05T09:36:21.224Z,99665.37
2022-08-05T09:38:59.101Z,99663.66
2022-08-05T09:41:26.268Z,99656.66
2022-08-05T09:44:00.395Z,99657.44
2022-08-05T09:46:34.091Z,99658.19
2022-08-05T09:49:19.540Z,99648.81
2022-08-05T09:51:48.981Z,99643.69
2022-08-05T09:54:29.109Z,99643.13
2022-08-05T09:56:57.683Z,99653.22
2022-08-05T09:59:28.832Z,99638.44
2022-08-05T10:02:02.252Z,99634.94
2022-08-05T10:04:38.352Z,99638.22
2022-08-05T10:07:20.098Z,99634.19
2022-08-05T10:10:14.392Z,99629.50
2022-08-05T10:12:49.726Z,99638.28
2022-08-05T10:15:20.672Z,99625.53
2022-08-05T10:18:07.140Z,99622.47
2022-08-05T10:20:35.842Z,99616.31
2022-08-05T10:23:03.314Z,99615.03
2022-08-05T10:25:30.681Z,99616.53
2022-08-05T10:28:12.807Z,99610.91
2022-08-05T10:32:50.648Z,99614.06
2022-08-05T10:33:34.206Z,99603.78
2022-08-05T10:36:05.468Z,99604.37
2022-08-05T10:38:33.777Z,99603.22
2022-08-05T10:41:08.016Z,99601.62
2022-08-05T10:43:36.441Z,99598.22
2022-08-05T10:46:06.609Z,99602.44
2022-08-05T10:48:56.629Z,99597.81
2022-08-05T10:51:29.208Z,99598.97
2022-08-05T10:53:58.283Z,99596.91
2022-08-05T10:56:29.848Z,99588.44
2022-08-05T10:59:07.345Z,99586.16
2022-08-05T11:01:54.823Z,99599.53
2022-08-05T11:04:30.913Z,99584.66
2022-08-05T11:07:00.571Z,99578.47
2022-08-05T11:09:39.027Z,99576.63
2022-08-05T11:12:22.002Z,99575.59
2022-08-05T11:15:19.140Z,99587.00
2022-08-05T11:18:07.342Z,99580.34
2022-08-05T11:20:43.724Z,99575.63
2022-08-05T11:23:33.273Z,99580.50
2022-08-05T11:26:27.998Z,99569.34
2022-08-05T11:28:56.772Z,99570.06
2022-08-05T11:31:56.765Z,99569.84
2022-08-05T11:34:18.065Z,99561.16
2022-08-05T11:36:52.973Z,99566.47
2022-08-05T11:39:39.451Z,99563.84
2022-08-05T11:42:18.286Z,99567.19
2022-08-05T11:44:53.875Z,99565.41
2022-08-05T11:47:48.218Z,99555.72
2022-08-05T11:50:14.343Z,99570.25
2022-08-05T11:52:43.970Z,99566.59
2022-08-05T11:55:13.687Z,99572.38
2022-08-05T11:58:10.029Z,99568.03
2022-08-05T12:00:37.976Z,99558.66
2022-08-05T12:03:16.559Z,99563.41
2022-08-05T12:06:01.373Z,99559.59
2022-08-05T12:08:31.510Z,99554.41
2022-08-05T12:11:05.479Z,99555.50
2022-08-05T12:13:49.335Z,99554.19
2022-08-05T12:16:25.397Z,99550.19
2022-08-05T12:18:54.833Z,99551.78
2022-08-05T12:21:24.031Z,99543.84
2022-08-05T12:23:52.192Z,99547.25
2022-08-05T12:26:19.614Z,99538.78
2022-08-05T12:28:46.733Z,99540.47
2022-08-05T12:31:23.727Z,99539.09
2022-08-05T12:34:01.646Z,99540.16
2022-08-05T12:36:30.537Z,99536.31
2022-08-05T12:38:59.004Z,99544.59
2022-08-05T12:41:34.305Z,99530.59
2022-08-05T12:44:03.316Z,99535.13
2022-08-05T12:46:32.368Z,99534.16
2022-08-05T12:49:01.640Z,99538.00
2022-08-05T12:52:12.686Z,99535.50
2022-08-05T12:54:31.740Z,99528.87
2022-08-05T12:57:00.001Z,99533.50
2022-08-05T13:00:08.732Z,99536.87
2022-08-05T13:02:16.810Z,99532.69
2022-08-05T13:04:52.581Z,99524.94
2022-08-05T13:07:54.741Z,99519.75
2022-08-05T13:10:10.796Z,99517.03
2022-08-05T13:12:50.640Z,99506.37
2022-08-05T13:15:24.461Z,99507.28
2022-08-05T13:18:03.600Z,99510.03
2022-08-05T13:20:34.235Z,99499.69
2022-08-05T13:23:01.361Z,99498.44
2022-08-05T13:25:51.981Z,99495.56
2022-08-05T13:28:22.582Z,99496.50
2022-08-05T13:30:51.043Z,99498.69
2022-08-05T13:34:24.440Z,99483.88
2022-08-05T13:36:06.188Z,99487.38
2022-08-05T13:38:41.937Z,99477.53
2022-08-05T13:41:11.516Z,99482.63
2022-08-05T13:43:44.466Z,99473.06
2022-08-05T13:46:44.055Z,99473.72
2022-08-05T13:49:10.305Z,99462.69
2022-08-05T13:51:41.659Z,99465.75
2022-08-05T13:54:15.538Z,99462.25
2022-08-05T13:56:45.467Z,99456.09
2022-08-05T13:59:23.748Z,99461.69
2022-08-05T14:01:58.414Z,99459.06
2022-08-05T14:04:51.361Z,99460.59
2022-08-05T14:07:59.893Z,99450.59
2022-08-05T14:10:18.641Z,99449.28
2022-08-05T14:12:48.436Z,99447.88
2022-08-05T14:16:05.573Z,99447.78
2022-08-05T14:18:04.100Z,99443.50
2022-08-05T14:20:32.128Z,99435.09
2022-08-05T14:22:59.698Z,99443.66
2022-08-05T14:25:27.799Z,99441.47
2022-08-05T14:27:55.954Z,99434.66
2022-08-05T14:30:23.103Z,99441.12
2022-08-05T14:32:53.709Z,99434.72
2022-08-05T14:35:22.925Z,99435.88
2022-08-05T14:37:53.633Z,99430.31
2022-08-05T14:40:24.329Z,99424.31
2022-08-05T14:42:52.194Z,99425.50
2022-08-05T14:45:19.349Z,99423.50
2022-08-05T14:48:02.659Z,99418.72
2022-08-05T14:50:31.562Z,99422.19
2022-08-05T14:53:00.270Z,99418.69
2022-08-05T14:55:38.554Z,99416.22
2022-08-05T14:58:11.680Z,99414.06
2022-08-05T15:00:58.238Z,99415.38
2022-08-05T15:03:33.346Z,99406.13
2022-08-05T15:06:07.642Z,99407.59
2022-08-05T15:08:59.291Z,99405.41
2022-08-05T15:11:52.942Z,99393.91
2022-08-05T15:14:33.979Z,99408.44
2022-08-05T15:17:04.692Z,99405.59
2022-08-05T15:19:32.518Z,99407.50
2022-08-05T15:22:01.290Z,99392.38
2022-08-05T15:24:28.938Z,99402.81
2022-08-05T15:26:57.161Z,99396.94
2022-08-05T15:29:29.746Z,99387.72
2022-08-05T15:32:03.084Z,99383.69
2022-08-05T15:34:32.301Z,99379.81
2022-08-05T15:37:06.100Z,99387.72
2022-08-05T15:40:59.878Z,99384.13
2022-08-05T15:42:53.896Z,99377.16
2022-08-05T15:45:11.330Z,99374.13
2022-08-05T15:47:39.328Z,99375.28
2022-08-05T15:50:07.344Z,99374.84
2022-08-05T15:52:53.424Z,99377.19
2022-08-05T15:55:25.094Z,99374.28
2022-08-05T15:58:16.518Z,99372.34
2022-08-05T16:01:03.589Z,99366.66
2022-08-05T16:03:32.734Z,99366.38
2022-08-05T16:06:01.155Z,99372.59
2022-08-05T16:08:30.786Z,99371.41
2022-08-05T16:10:58.798Z,99373.09
2022-08-05T16:13:34.268Z,99377.53
2022-08-05T16:16:03.559Z,99375.22
2022-08-05T16:18:32.968Z,99372.50
2022-08-05T16:21:04.596Z,99377.63
2022-08-05T16:23:53.634Z,99380.16
2022-08-05T16:26:26.223Z,99384.81
2022-08-05T16:28:54.586Z,99386.16
2022-08-05T16:31:22.038Z,99380.72
2022-08-05T16:33:49.476Z,99374.06
2022-08-05T16:36:20.418Z,99373.88
2022-08-05T16:38:54.318Z,99376.31
2022-08-05T16:42:14.978Z,99370.88
2022-08-05T16:44:11.026Z,99361.44
2022-08-05T16:46:40.936Z,99367.03
2022-08-05T16:49:09.242Z,99367.53
2022-08-05T16:51:42.931Z,99366.59
2022-08-05T16:54:26.138Z,99362.31
2022-08-05T16:56:57.920Z,99358.34
2022-08-05T16:59:25.499Z,99359.69
2022-08-05T17:01:57.955Z,99359.81
2022-08-05T17:04:27.839Z,99374.47
2022-08-05T17:06:56.980Z,99363.41
2022-08-05T17:09:29.505Z,99370.53
2022-08-05T17:11:59.710Z,99365.34
2022-08-05T17:14:34.430Z,99370.19
2022-08-05T17:17:14.398Z,99376.19
2022-08-05T17:19:45.282Z,99374.34
2022-08-05T17:22:24.878Z,99372.25
2022-08-05T17:24:57.921Z,99376.84
2022-08-05T17:27:33.599Z,99373.47
2022-08-05T17:30:03.155Z,99380.31
2022-08-05T17:32:32.196Z,99375.03
2022-08-05T17:35:02.181Z,99378.13
2022-08-05T17:37:41.752Z,99383.72
2022-08-05T17:40:14.902Z,99381.56
2022-08-05T17:42:49.896Z,99375.63
2022-08-05T17:45:21.172Z,99381.50
2022-08-05T17:47:53.887Z,99377.81
2022-08-05T17:50:29.448Z,99380.97
2022-08-05T17:52:58.976Z,99381.38
2022-08-05T17:55:34.363Z,99375.53
2022-08-05T17:58:06.961Z,99375.41
2022-08-05T18:00:40.863Z,99379.72
2022-08-05T18:03:28.100Z,99385.44
2022-08-05T18:06:04.514Z,99380.00
2022-08-05T18:08:33.367Z,99388.19
2022-08-05T18:11:01.117Z,99380.00
2022-08-05T18:13:36.870Z,99373.63
2022-08-05T18:16:13.348Z,99379.75
2022-08-05T18:18:41.187Z,99371.72
2022-08-05T18:21:13.261Z,99378.72
2022-08-05T18:23:48.162Z,99375.25
2022-08-05T18:26:18.167Z,99376.44
2022-08-05T18:28:46.473Z,99382.09
2022-08-05T18:31:15.758Z,99376.94
2022-08-05T18:33:47.130Z,99383.50
2022-08-05T18:36:17.344Z,99379.81
2022-08-05T18:38:46.463Z,99389.53
2022-08-05T18:41:55.808Z,99390.69
2022-08-05T18:44:06.192Z,99388.75
2022-08-05T18:46:33.937Z,99388.38
2022-08-05T18:49:30.530Z,99398.03
2022-08-05T18:52:16.777Z,99395.62
2022-08-05T18:54:45.912Z,99395.22
2022-08-05T18:57:15.258Z,99402.78
2022-08-05T19:00:02.414Z,99401.19
2022-08-05T19:02:31.073Z,99401.97
2022-08-05T19:05:02.687Z,99400.41
2022-08-05T19:07:50.036Z,99395.56
2022-08-05T19:10:17.736Z,99402.03
2022-08-05T19:12:46.175Z,99410.44
2022-08-05T19:15:58.259Z,99408.78
2022-08-05T19:18:09.682Z,99411.56
2022-08-05T19:20:41.577Z,99411.56
2022-08-05T19:24:04.416Z,99408.31
2022-08-05T19:26:02.186Z,99411.09
2022-08-05T19:28:34.955Z,99414.66
2022-08-05T19:31:05.880Z,99413.34
2022-08-05T19:33:36.806Z,99420.88
2022-08-05T19:36:06.422Z,99417.69
2022-08-05T19:38:35.907Z,99422.34
2022-08-05T19:41:08.764Z,99416.66
2022-08-05T19:44:06.629Z,99418.12
2022-08-05T19:46:30.031Z,99420.56
2022-08-05T19:49:01.146Z,99411.78
2022-08-05T19:52:04.863Z,99413.66
2022-08-05T19:54:31.504Z,99420.94
2022-08-05T19:56:59.586Z,99421.53
2022-08-05T19:59:59.598Z,99411.16
2022-08-05T20:02:17.700Z,99417.22
2022-08-05T20:04:45.785Z,99413.97
2022-08-05T20:07:13.919Z,99411.41
2022-08-05T20:09:53.815Z,99421.63
2022-08-05T20:12:23.985Z,99427.53
2022-08-05T20:14:52.705Z,99423.19
2022-08-05T20:17:23.279Z,99409.75
2022-08-05T20:19:56.977Z,99414.97
2022-08-05T20:22:27.041Z,99416.81
2022-08-05T20:24:55.682Z,99421.28
2022-08-05T20:27:27.634Z,99433.50
2022-08-05T20:30:10.393Z,99436.59
2022-08-05T20:32:37.776Z,99439.75
2022-08-05T20:35:13.168Z,99433.72
2022-08-05T20:38:06.291Z,99430.75
2022-08-05T20:40:30.439Z,99427.28
